createdAt,value
2018-07-23T00:02:11.740Z,24.30
2018-07-23T00:04:42.902Z,24.87
2018-07-23T00:07:14.066Z,23.73
2018-07-23T00:09:47.225Z,24.57
2018-07-23T00:12:18.229Z,24.83
2018-07-23T00:14:49.434Z,23.60
2018-07-23T00:17:20.228Z,24.03
2018-07-23T00:19:51.072Z,22.90
2018-07-23T00:22:21.904Z,24.27
2018-07-23T00:24:52.877Z,24.10
2018-07-23T00:27:24.001Z,22.10
2018-07-23T00:29:55.145Z,23.77
2018-07-23T00:32:26.295Z,24.17
2018-07-23T00:34:57.171Z,23.33
2018-07-23T00:37:28.258Z,23.87
2018-07-23T00:39:59.350Z,23.87
2018-07-23T00:42:30.521Z,24.50
2018-07-23T00:45:02.114Z,24.27
2018-07-23T00:47:33.073Z,24.37
2018-07-23T00:50:04.200Z,23.97
2018-07-23T00:52:35.730Z,25.07
2018-07-23T00:55:06.690Z,24.33
2018-07-23T00:57:37.744Z,26.60
2018-07-23T01:00:08.713Z,25.00
2018-07-23T01:02:39.880Z,25.43
2018-07-23T01:05:11.019Z,25.50
2018-07-23T01:07:41.957Z,25.43
2018-07-23T01:10:12.741Z,27.07
2018-07-23T01:12:43.828Z,26.67
2018-07-23T01:15:14.986Z,25.40
2018-07-23T01:17:46.087Z,26.20
2018-07-23T01:20:17.446Z,25.27
2018-07-23T01:22:48.633Z,25.03
2018-07-23T01:25:19.625Z,24.37
2018-07-23T01:27:50.781Z,24.13
2018-07-23T01:30:21.721Z,23.57
2018-07-23T01:32:52.767Z,22.90
2018-07-23T01:35:23.731Z,24.43
2018-07-23T01:37:54.889Z,25.17
2018-07-23T01:40:25.833Z,26.47
2018-07-23T01:42:56.780Z,26.43
2018-07-23T01:45:27.902Z,25.93
2018-07-23T01:48:04.923Z,25.70
2018-07-23T01:50:36.026Z,25.10
2018-07-23T01:53:07.052Z,24.20
2018-07-23T01:55:37.395Z,25.43
2018-07-23T01:58:07.636Z,23.27
2018-07-23T02:00:38.367Z,23.13
2018-07-23T02:03:09.668Z,26.95
2018-07-23T02:05:40.705Z,24.13
2018-07-23T02:08:11.029Z,25.80
2018-07-23T02:10:42.177Z,25.83
2018-07-23T02:13:13.299Z,25.87
2018-07-23T02:15:44.369Z,24.77
2018-07-23T02:18:15.438Z,25.10
2018-07-23T02:20:46.419Z,25.33
2018-07-23T02:23:17.335Z,26.57
2018-07-23T02:25:48.418Z,27.33
2018-07-23T02:28:19.397Z,26.80
2018-07-23T02:30:50.692Z,25.70
2018-07-23T02:33:22.495Z,26.20
2018-07-23T02:35:53.775Z,24.83
2018-07-23T02:38:24.883Z,25.87
2018-07-23T02:40:55.851Z,26.00
2018-07-23T02:43:26.858Z,24.83
2018-07-23T02:45:58.329Z,23.37
2018-07-23T02:48:30.347Z,24.47
2018-07-23T02:51:01.286Z,22.97
2018-07-23T02:53:32.451Z,24.93
2018-07-23T02:56:03.685Z,25.80
2018-07-23T02:58:34.775Z,24.73
2018-07-23T03:01:06.068Z,27.43
2018-07-23T03:03:37.483Z,26.80
2018-07-23T03:06:26.185Z,26.80
2018-07-23T03:08:57.564Z,28.03
2018-07-23T03:11:28.574Z,26.83
2018-07-23T03:13:59.561Z,27.37
2018-07-23T03:16:30.481Z,26.17
2018-07-23T03:19:00.932Z,26.13
2018-07-23T03:21:31.692Z,28.67
2018-07-23T03:24:02.794Z,27.60
2018-07-23T03:26:33.835Z,26.07
2018-07-23T03:29:04.820Z,25.63
2018-07-23T03:31:35.840Z,26.20
2018-07-23T03:34:07.215Z,25.80
2018-07-23T03:36:38.402Z,27.40
2018-07-23T03:39:10.429Z,26.07
2018-07-23T03:41:41.475Z,26.53
2018-07-23T03:44:12.494Z,27.63
2018-07-23T03:46:43.571Z,26.63
2018-07-23T03:49:14.852Z,28.63
2018-07-23T03:51:46.420Z,26.30
2018-07-23T03:54:17.632Z,28.37
2018-07-23T03:56:48.732Z,29.63
2018-07-23T03:59:20.181Z,28.37
2018-07-23T04:01:51.196Z,28.17
2018-07-23T04:04:25.468Z,28.60
2018-07-23T04:06:56.730Z,27.87
2018-07-23T04:09:27.726Z,27.93
2018-07-23T04:11:58.147Z,27.53
2018-07-23T04:14:29.343Z,26.30
2018-07-23T04:17:00.642Z,26.43
2018-07-23T04:19:32.083Z,26.63
2018-07-23T04:22:02.994Z,27.33
2018-07-23T04:24:34.320Z,26.70
2018-07-23T04:27:05.384Z,26.13
2018-07-23T04:29:36.603Z,25.53
2018-07-23T04:32:07.795Z,25.27
2018-07-23T04:34:38.947Z,26.70
2018-07-23T04:37:10.066Z,27.80
2018-07-23T04:39:41.277Z,26.13
2018-07-23T04:42:12.455Z,26.27
2018-07-23T04:44:43.527Z,25.77
2018-07-23T04:47:14.633Z,25.50
2018-07-23T04:49:45.755Z,25.07
2018-07-23T04:52:17.476Z,23.03
2018-07-23T04:54:48.004Z,23.00
2018-07-23T04:57:18.928Z,22.63
2018-07-23T04:59:49.958Z,21.53
2018-07-23T05:02:21.015Z,21.73
2018-07-23T05:04:52.231Z,21.17
2018-07-23T05:07:23.465Z,20.83
2018-07-23T05:09:54.732Z,20.83
2018-07-23T05:12:25.630Z,20.40
2018-07-23T05:14:56.592Z,20.10
2018-07-23T05:17:27.372Z,19.53
2018-07-23T05:19:58.372Z,19.43
2018-07-23T05:22:29.348Z,20.63
2018-07-23T05:25:00.539Z,19.63
2018-07-23T05:27:31.600Z,20.27
2018-07-23T05:30:02.603Z,21.07
2018-07-23T05:32:33.793Z,21.47
2018-07-23T05:35:05.117Z,21.20
2018-07-23T05:37:36.083Z,20.83
2018-07-23T05:40:07.144Z,21.70
2018-07-23T05:42:38.231Z,21.80
2018-07-23T05:45:09.491Z,21.17
2018-07-23T05:47:40.249Z,21.20
2018-07-23T05:50:11.516Z,21.77
2018-07-23T05:52:42.542Z,21.60
2018-07-23T05:55:13.657Z,21.23
2018-07-23T05:57:44.631Z,20.63
2018-07-23T06:00:15.685Z,22.00
2018-07-23T06:02:46.905Z,21.60
2018-07-23T06:05:17.985Z,20.77
2018-07-23T06:07:48.950Z,21.27
2018-07-23T06:10:19.938Z,20.43
2018-07-23T06:12:50.897Z,20.50
2018-07-23T06:15:21.779Z,21.53
2018-07-23T06:17:52.679Z,20.13
2018-07-23T06:20:23.699Z,18.83
2018-07-23T06:22:54.744Z,20.07
2018-07-23T06:25:25.739Z,19.17
2018-07-23T06:27:56.740Z,18.70
2018-07-23T06:30:27.822Z,17.90
2018-07-23T06:32:58.621Z,17.67
2018-07-23T06:35:29.609Z,17.77
2018-07-23T06:38:00.786Z,17.70
2018-07-23T06:40:31.166Z,18.27
2018-07-23T06:43:02.035Z,18.40
2018-07-23T06:45:32.886Z,18.00
2018-07-23T06:48:04.106Z,16.17
2018-07-23T06:50:35.052Z,16.63
2018-07-23T06:53:06.070Z,17.73
2018-07-23T06:55:37.239Z,17.00
2018-07-23T06:58:07.902Z,17.00
2018-07-23T07:00:38.796Z,16.90
2018-07-23T07:03:09.685Z,16.27
2018-07-23T07:05:40.489Z,15.50
2018-07-23T07:08:11.424Z,16.17
2018-07-23T07:10:42.169Z,16.03
2018-07-23T07:13:12.954Z,17.03
2018-07-23T07:15:44.017Z,17.33
2018-07-23T07:18:15.679Z,17.43
2018-07-23T07:20:46.621Z,16.67
2018-07-23T07:23:17.864Z,16.50
2018-07-23T07:25:48.517Z,16.60
2018-07-23T07:28:19.463Z,16.90
2018-07-23T07:30:50.253Z,16.73
2018-07-23T07:33:23.363Z,16.73
2018-07-23T07:35:54.233Z,16.40
2018-07-23T07:38:25.435Z,15.67
2018-07-23T07:40:56.283Z,15.73
2018-07-23T07:43:27.507Z,15.97
2018-07-23T07:45:58.375Z,15.30
2018-07-23T07:48:29.573Z,14.37
2018-07-23T07:51:00.733Z,15.58
2018-07-23T07:53:30.978Z,14.63
2018-07-23T07:56:01.857Z,14.55
2018-07-23T07:58:32.756Z,14.00
2018-07-23T08:01:03.832Z,12.33
2018-07-23T08:03:34.511Z,11.97
2018-07-23T08:06:05.334Z,12.65
2018-07-23T08:08:36.070Z,12.68
2018-07-23T08:11:07.112Z,12.80
2018-07-23T08:13:38.275Z,11.63
2018-07-23T08:16:09.311Z,12.58
2018-07-23T08:18:40.335Z,10.85
2018-07-23T08:21:11.477Z,11.43
2018-07-23T08:23:42.600Z,11.88
2018-07-23T08:26:13.624Z,11.68
2018-07-23T08:28:44.741Z,10.98
2018-07-23T08:31:15.574Z,11.25
2018-07-23T08:33:46.669Z,10.98
2018-07-23T08:36:17.499Z,10.80
2018-07-23T08:38:48.584Z,11.10
2018-07-23T08:41:19.730Z,10.50
2018-07-23T08:43:50.675Z,10.80
2018-07-23T08:46:21.793Z,11.20
2018-07-23T08:48:52.735Z,11.05
2018-07-23T08:51:23.574Z,10.43
2018-07-23T08:53:54.363Z,10.50
2018-07-23T08:56:25.167Z,10.08
2018-07-23T08:58:55.961Z,10.98
2018-07-23T09:01:27.286Z,10.72
2018-07-23T09:03:58.249Z,10.80
2018-07-23T09:06:29.092Z,11.10
2018-07-23T09:09:00.547Z,10.45
2018-07-23T09:11:31.503Z,10.20
2018-07-23T09:14:02.665Z,9.50
2018-07-23T09:16:33.745Z,9.28
2018-07-23T09:19:05.031Z,11.35
2018-07-23T09:21:36.020Z,10.23
2018-07-23T09:24:06.852Z,10.05
2018-07-23T09:26:37.897Z,11.50
2018-07-23T09:29:09.187Z,10.20
2018-07-23T09:31:40.225Z,10.30
2018-07-23T09:34:11.309Z,11.17
2018-07-23T09:36:42.457Z,11.00
2018-07-23T09:39:13.546Z,10.63
2018-07-23T09:41:44.609Z,9.50
2018-07-23T09:44:15.413Z,10.77
2018-07-23T09:46:46.145Z,9.57
2018-07-23T09:49:17.252Z,9.60
2018-07-23T09:51:48.468Z,9.10
2018-07-23T09:54:19.689Z,9.20
2018-07-23T09:56:50.418Z,9.25
2018-07-23T09:59:21.428Z,9.13
2018-07-23T10:01:52.256Z,8.80
2018-07-23T10:04:22.978Z,8.68
2018-07-23T10:06:53.826Z,8.60
2018-07-23T10:09:24.822Z,8.60
2018-07-23T10:11:55.986Z,7.22
2018-07-23T10:14:26.973Z,7.33
2018-07-23T10:16:58.355Z,7.12
2018-07-23T10:19:29.460Z,8.08
2018-07-23T10:22:00.590Z,8.55
2018-07-23T10:24:31.625Z,7.30
2018-07-23T10:27:02.600Z,7.47
2018-07-23T10:29:33.492Z,6.97
2018-07-23T10:32:04.253Z,7.72
2018-07-23T10:34:34.999Z,7.47
2018-07-23T10:37:05.830Z,7.08
2018-07-23T10:39:37.032Z,6.95
2018-07-23T10:42:07.785Z,6.87
2018-07-23T10:44:38.651Z,7.72
2018-07-23T10:47:09.642Z,6.87
2018-07-23T10:49:40.320Z,7.10
2018-07-23T10:52:10.996Z,6.83
2018-07-23T10:54:41.744Z,7.55
2018-07-23T10:57:12.681Z,7.25
2018-07-23T10:59:43.386Z,7.67
2018-07-23T11:02:14.452Z,6.70
2018-07-23T11:04:45.165Z,7.00
2018-07-23T11:07:16.454Z,6.50
2018-07-23T11:09:47.265Z,6.65
2018-07-23T11:12:18.026Z,6.92
2018-07-23T11:14:48.692Z,6.65
2018-07-23T11:17:19.574Z,7.20
2018-07-23T11:19:50.275Z,7.47
2018-07-23T11:22:21.235Z,6.62
2018-07-23T11:24:52.168Z,7.20
2018-07-23T11:27:23.124Z,7.55
2018-07-23T11:29:54.129Z,6.80
2018-07-23T11:32:25.081Z,7.60
2018-07-23T11:34:56.059Z,6.92
2018-07-23T11:37:27.055Z,7.17
2018-07-23T11:39:58.309Z,7.12
2018-07-23T11:42:29.151Z,6.95
2018-07-23T11:44:59.884Z,6.92
2018-07-23T11:47:31.032Z,7.70
2018-07-23T11:50:01.677Z,7.42
2018-07-23T11:52:32.575Z,7.58
2018-07-23T11:55:03.523Z,8.08
2018-07-23T11:57:34.518Z,8.15
2018-07-23T12:00:05.807Z,7.53
2018-07-23T12:02:36.993Z,8.15
2018-07-23T12:05:07.995Z,7.58
2018-07-23T12:07:39.089Z,7.72
2018-07-23T12:10:09.906Z,7.80
2018-07-23T12:12:40.667Z,7.47
2018-07-23T12:15:11.598Z,7.65
2018-07-23T12:17:42.920Z,7.55
2018-07-23T12:23:40.961Z,7.55
2018-07-23T12:26:12.014Z,7.05
2018-07-23T12:28:43.245Z,7.50
2018-07-23T12:31:14.419Z,7.28
2018-07-23T12:33:45.568Z,7.95
2018-07-23T12:36:16.621Z,7.42
2018-07-23T12:38:47.642Z,7.80
2018-07-23T12:41:18.677Z,7.45
2018-07-23T12:43:49.831Z,8.03
2018-07-23T12:46:21.032Z,7.75
2018-07-23T12:48:52.147Z,7.55
2018-07-23T12:51:23.006Z,7.50
2018-07-23T12:53:53.922Z,7.40
2018-07-23T12:56:24.761Z,7.65
2018-07-23T12:58:55.632Z,7.33
2018-07-23T13:01:26.597Z,7.60
2018-07-23T13:03:58.191Z,7.70
2018-07-23T13:06:28.404Z,7.30
2018-07-23T13:08:59.049Z,7.58
2018-07-23T13:11:30.224Z,7.62
2018-07-23T13:14:00.620Z,7.53
2018-07-23T13:16:31.515Z,7.40
2018-07-23T13:19:02.593Z,8.25
2018-07-23T13:21:34.134Z,7.62
2018-07-23T13:24:05.317Z,8.35
2018-07-23T13:26:36.230Z,7.72
2018-07-23T13:29:07.116Z,6.75
2018-07-23T13:31:37.920Z,7.12
2018-07-23T13:34:08.959Z,6.78
2018-07-23T13:36:40.225Z,6.35
2018-07-23T13:39:12.871Z,6.50
2018-07-23T13:41:43.896Z,6.50
2018-07-23T13:44:14.801Z,6.35
2018-07-23T13:46:47.988Z,6.62
2018-07-23T13:49:18.828Z,6.30
2018-07-23T13:51:49.534Z,6.58
2018-07-23T13:54:20.436Z,6.42
2018-07-23T13:56:51.217Z,6.80
2018-07-23T13:59:22.126Z,6.58
2018-07-23T14:01:53.175Z,6.65
2018-07-23T14:04:24.087Z,6.42
2018-07-23T14:06:54.944Z,6.37
2018-07-23T14:09:25.671Z,6.70
2018-07-23T14:11:56.406Z,6.78
2018-07-23T14:14:27.502Z,7.83
2018-07-23T14:16:58.113Z,7.15
2018-07-23T14:19:28.891Z,6.72
2018-07-23T14:21:59.929Z,6.75
2018-07-23T14:24:31.127Z,7.83
2018-07-23T14:27:02.195Z,6.83
2018-07-23T14:29:33.230Z,7.05
2018-07-23T14:32:04.131Z,6.50
2018-07-23T14:34:35.105Z,6.78
2018-07-23T14:37:06.058Z,6.80
2018-07-23T14:39:37.000Z,6.92
2018-07-23T14:42:08.107Z,6.85
2018-07-23T14:44:38.842Z,6.72
2018-07-23T14:47:09.852Z,7.00
2018-07-23T14:49:40.759Z,6.58
2018-07-23T14:52:11.535Z,6.92
2018-07-23T14:54:42.709Z,6.33
2018-07-23T14:57:13.839Z,6.70
2018-07-23T14:59:45.004Z,6.55
2018-07-23T15:02:15.912Z,6.58
2018-07-23T15:04:46.159Z,6.70
2018-07-23T15:07:16.975Z,6.50
2018-07-23T15:09:48.025Z,6.72
2018-07-23T15:12:18.988Z,6.70
2018-07-23T15:14:49.951Z,6.42
2018-07-23T15:17:20.759Z,6.28
2018-07-23T15:19:51.517Z,7.00
2018-07-23T15:22:22.492Z,6.60
2018-07-23T15:24:53.418Z,6.78
2018-07-23T15:27:24.236Z,6.80
2018-07-23T15:29:54.930Z,6.75
2018-07-23T15:32:25.740Z,6.58
2018-07-23T15:34:57.537Z,6.58
2018-07-23T15:37:28.471Z,5.53
2018-07-23T15:39:59.334Z,5.40
2018-07-23T15:42:30.400Z,5.60
2018-07-23T15:45:01.617Z,5.33
2018-07-23T15:47:31.935Z,5.03
2018-07-23T15:50:02.568Z,5.22
2018-07-23T15:52:33.697Z,5.35
2018-07-23T15:55:04.651Z,5.62
2018-07-23T15:57:35.387Z,5.30
2018-07-23T16:00:06.500Z,5.62
2018-07-23T16:02:37.162Z,5.50
2018-07-23T16:05:08.235Z,5.62
2018-07-23T16:07:39.089Z,5.45
2018-07-23T16:10:10.053Z,5.80
2018-07-23T16:12:41.101Z,5.47
2018-07-23T16:15:12.071Z,5.08
2018-07-23T16:17:42.905Z,5.40
2018-07-23T16:20:20.674Z,5.10
2018-07-23T16:22:51.504Z,5.80
2018-07-23T16:25:22.385Z,5.70
2018-07-23T16:27:53.575Z,5.62
2018-07-23T16:30:24.541Z,5.33
2018-07-23T16:32:59.261Z,6.12
2018-07-23T16:35:39.701Z,5.85
2018-07-23T16:38:10.717Z,5.30
2018-07-23T16:40:41.700Z,5.53
2018-07-23T16:43:18.543Z,5.75
2018-07-23T16:45:49.412Z,5.65
2018-07-23T16:48:20.692Z,6.00
2018-07-23T16:50:51.795Z,5.85
2018-07-23T16:53:22.853Z,5.78
2018-07-23T16:55:53.315Z,5.30
2018-07-23T16:58:35.204Z,5.50
2018-07-23T17:01:06.092Z,5.62
2018-07-23T17:03:37.104Z,5.53
2018-07-23T17:06:08.169Z,5.65
2018-07-23T17:08:39.112Z,6.05
2018-07-23T17:11:10.056Z,5.60
2018-07-23T17:13:40.915Z,5.65
2018-07-23T17:16:12.065Z,5.65
2018-07-23T17:18:43.691Z,5.78
2018-07-23T17:21:37.686Z,6.25
2018-07-23T17:27:21.947Z,5.33
2018-07-23T17:29:53.049Z,5.03
2018-07-23T17:38:53.685Z,5.50
2018-07-23T17:41:24.773Z,5.40
2018-07-23T17:43:55.993Z,5.12
2018-07-23T17:46:26.944Z,5.22
2018-07-23T17:48:58.029Z,5.20
2018-07-23T17:51:34.875Z,5.45
2018-07-23T17:54:05.881Z,5.67
2018-07-23T17:56:36.922Z,5.75
2018-07-23T17:59:07.773Z,5.12
2018-07-23T18:01:38.883Z,5.58
2018-07-23T18:04:09.917Z,5.45
2018-07-23T18:06:40.788Z,5.83
2018-07-23T18:09:13.192Z,5.30
2018-07-23T18:11:44.378Z,5.78
2018-07-23T18:14:15.157Z,5.90
2018-07-23T18:16:46.130Z,5.28
2018-07-23T18:19:17.441Z,5.37
2018-07-23T18:21:48.863Z,5.85
2018-07-23T18:24:19.863Z,5.85
2018-07-23T18:26:51.029Z,5.65
2018-07-23T18:29:22.081Z,5.75
2018-07-23T18:31:53.193Z,5.83
2018-07-23T18:34:24.207Z,6.03
2018-07-23T18:36:55.035Z,6.00
2018-07-23T18:39:25.935Z,6.47
2018-07-23T18:41:57.146Z,6.45
2018-07-23T18:44:27.987Z,5.92
2018-07-23T18:46:59.177Z,6.10
2018-07-23T18:49:44.761Z,6.08
2018-07-23T18:52:16.510Z,6.45
2018-07-23T18:54:56.218Z,6.87
2018-07-23T18:57:27.909Z,6.55
2018-07-23T18:59:59.010Z,6.55
2018-07-23T19:02:30.130Z,6.80
2018-07-23T19:05:01.088Z,7.20
2018-07-23T19:07:31.996Z,7.58
2018-07-23T19:10:03.081Z,7.58
2018-07-23T19:12:34.162Z,7.40
2018-07-23T19:15:05.358Z,8.23
2018-07-23T19:17:36.157Z,7.90
2018-07-23T19:20:07.030Z,8.53
2018-07-23T19:22:38.188Z,8.33
2018-07-23T19:25:08.580Z,8.77
2018-07-23T19:27:39.370Z,8.37
2018-07-23T19:30:10.365Z,8.67
2018-07-23T19:32:41.671Z,8.50
2018-07-23T19:35:12.658Z,9.37
2018-07-23T19:37:43.797Z,9.57
2018-07-23T19:40:14.656Z,9.53
2018-07-23T19:42:45.540Z,9.30
2018-07-23T19:45:16.506Z,9.40
2018-07-23T19:47:47.513Z,9.50
2018-07-23T19:50:18.653Z,9.23
2018-07-23T19:52:49.892Z,9.83
2018-07-23T19:55:20.909Z,9.97
2018-07-23T19:57:52.069Z,11.93
2018-07-23T20:00:23.004Z,9.73
2018-07-23T20:02:54.025Z,10.23
2018-07-23T20:05:25.082Z,10.13
2018-07-23T20:07:56.183Z,9.97
2018-07-23T20:10:27.072Z,10.80
2018-07-23T20:12:58.076Z,10.00
2018-07-23T20:15:29.011Z,10.17
2018-07-23T20:17:59.933Z,10.47
2018-07-23T20:20:30.875Z,10.20
2018-07-23T20:23:01.830Z,10.50
2018-07-23T20:25:32.901Z,10.27
2018-07-23T20:28:03.860Z,10.63
2018-07-23T20:30:34.678Z,10.60
2018-07-23T20:33:06.629Z,10.60
2018-07-23T20:41:45.335Z,11.37
2018-07-23T20:44:16.211Z,10.93
2018-07-23T20:47:03.056Z,11.73
2018-07-23T20:49:34.664Z,11.93
2018-07-23T20:55:15.041Z,11.77
2018-07-23T20:57:46.139Z,11.50
2018-07-23T21:00:17.582Z,12.33
2018-07-23T21:02:48.603Z,12.93
2018-07-23T21:05:19.555Z,12.83
2018-07-23T21:07:50.401Z,12.23
2018-07-23T21:10:21.345Z,12.90
2018-07-23T21:12:52.367Z,12.53
2018-07-23T21:15:23.387Z,13.00
2018-07-23T21:17:54.571Z,13.60
2018-07-23T21:20:25.604Z,12.77
2018-07-23T21:22:56.554Z,13.20
2018-07-23T21:25:27.526Z,14.67
2018-07-23T21:27:58.506Z,13.07
2018-07-23T21:30:29.515Z,12.87
2018-07-23T21:33:00.503Z,13.17
2018-07-23T21:35:31.275Z,13.17
2018-07-23T21:41:03.323Z,13.83
2018-07-23T21:43:34.469Z,14.10
2018-07-23T21:46:05.306Z,13.50
2018-07-23T21:48:36.408Z,14.03
2018-07-23T21:51:07.517Z,14.73
2018-07-23T21:53:38.509Z,14.17
2018-07-23T21:56:09.352Z,14.07
2018-07-23T21:58:40.407Z,13.97
2018-07-23T22:01:11.576Z,13.60
2018-07-23T22:03:42.383Z,13.63
2018-07-23T22:06:13.474Z,14.67
2018-07-23T22:08:44.671Z,15.07
2018-07-23T22:11:15.538Z,13.97
2018-07-23T22:13:46.750Z,14.63
2018-07-23T22:16:17.604Z,14.90
2018-07-23T22:18:48.874Z,15.63
2018-07-23T22:21:20.133Z,15.33
2018-07-23T22:23:51.309Z,14.90
2018-07-23T22:26:22.281Z,14.00
2018-07-23T22:28:53.431Z,14.63
2018-07-23T22:31:24.423Z,14.70
2018-07-23T22:33:54.639Z,15.03
2018-07-23T22:36:25.616Z,14.40
2018-07-23T22:38:56.783Z,14.40
2018-07-23T22:41:28.417Z,16.47
2018-07-23T22:43:59.368Z,15.23
2018-07-23T22:46:46.534Z,15.03
2018-07-23T22:49:17.529Z,15.50
2018-07-23T22:51:48.633Z,15.17
2018-07-23T22:54:19.441Z,14.67
2018-07-23T22:56:50.393Z,14.77
2018-07-23T22:59:21.531Z,15.80
2018-07-23T23:01:52.671Z,15.90
2018-07-23T23:04:23.735Z,16.37
2018-07-23T23:06:54.939Z,14.83
2018-07-23T23:09:26.026Z,15.30
2018-07-23T23:11:57.236Z,15.60
2018-07-23T23:14:28.076Z,15.57
2018-07-23T23:16:59.152Z,15.17
2018-07-23T23:19:30.101Z,16.33
2018-07-23T23:22:00.962Z,15.83
2018-07-23T23:24:32.024Z,16.63
2018-07-23T23:27:03.157Z,15.80
2018-07-23T23:29:34.109Z,16.97
2018-07-23T23:32:05.046Z,15.37
2018-07-23T23:34:36.219Z,16.93
2018-07-23T23:37:07.211Z,16.70
2018-07-23T23:39:38.372Z,15.63
2018-07-23T23:42:09.351Z,17.63
2018-07-23T23:44:40.515Z,16.90
2018-07-23T23:47:11.677Z,17.47
2018-07-23T23:49:42.851Z,15.83
2018-07-23T23:52:13.912Z,17.17
2018-07-23T23:54:45.101Z,17.80
2018-07-23T23:57:16.436Z,17.50
2018-07-23T23:59:47.455Z,17.53
